createdAt,value
2022-07-28T00:00:24.212Z,41.50
2022-07-28T00:05:27.856Z,41.50
2022-07-28T00:10:32.225Z,41.60
2022-07-28T00:15:36.743Z,41.50
2022-07-28T00:20:39.795Z,41.50
2022-07-28T00:25:42.819Z,41.60
2022-07-28T00:30:47.262Z,41.70
2022-07-28T00:35:50.375Z,41.70
2022-07-28T00:41:11.948Z,41.70
2022-07-28T00:46:18.766Z,41.90
2022-07-28T00:51:25.055Z,41.90
2022-07-28T00:56:28.309Z,42.00
2022-07-28T01:01:32.813Z,42.00
2022-07-28T01:06:49.944Z,42.10
2022-07-28T01:12:00.120Z,42.20
2022-07-28T01:17:12.680Z,42.20
2022-07-28T01:22:21.661Z,42.20
2022-07-28T01:27:46.703Z,42.30
2022-07-28T01:32:58.274Z,42.40
2022-07-28T01:38:06.538Z,42.50
2022-07-28T01:43:14.249Z,42.50
2022-07-28T01:48:21.142Z,42.60
2022-07-28T01:53:26.152Z,42.60
2022-07-28T01:58:31.273Z,42.60
2022-07-28T02:03:36.914Z,42.70
2022-07-28T02:08:41.899Z,42.70
2022-07-28T02:13:47.447Z,42.70
2022-07-28T02:18:53.560Z,42.80
2022-07-28T02:23:57.860Z,42.80
2022-07-28T02:29:04.210Z,42.90
2022-07-28T02:34:09.630Z,42.90
2022-07-28T02:39:21.252Z,42.90
2022-07-28T02:44:29.448Z,43.40
2022-07-28T02:49:36.380Z,43.70
2022-07-28T02:54:42.144Z,44.40
2022-07-28T02:59:45.955Z,44.90
2022-07-28T03:05:01.872Z,45.10
2022-07-28T03:10:06.012Z,45.50
2022-07-28T03:15:10.263Z,45.90
2022-07-28T03:20:15.748Z,46.40
2022-07-28T03:25:24.418Z,46.70
2022-07-28T03:30:30.515Z,46.90
2022-07-28T03:35:38.744Z,47.00
2022-07-28T03:40:46.064Z,47.30
2022-07-28T03:45:50.410Z,47.50
2022-07-28T03:50:54.894Z,47.80
2022-07-28T03:55:58.586Z,48.20
2022-07-28T04:01:01.714Z,48.20
2022-07-28T04:06:06.215Z,48.10
2022-07-28T04:11:09.279Z,47.80
2022-07-28T04:16:12.343Z,47.40
2022-07-28T04:21:16.920Z,47.10
2022-07-28T04:26:20.355Z,46.80
2022-07-28T04:31:23.559Z,46.50
2022-07-28T04:36:28.469Z,46.10
2022-07-28T04:41:31.464Z,45.60
2022-07-28T04:46:35.931Z,45.30
2022-07-28T04:51:40.584Z,45.00
2022-07-28T04:56:43.704Z,44.80
2022-07-28T05:01:46.852Z,44.70
2022-07-28T05:06:51.477Z,44.60
2022-07-28T05:11:54.730Z,44.40
2022-07-28T05:16:57.803Z,44.30
2022-07-28T05:22:02.691Z,44.20
2022-07-28T05:27:05.772Z,44.10
2022-07-28T05:32:15.610Z,43.90
2022-07-28T05:37:22.016Z,43.80
2022-07-28T05:42:26.536Z,43.70
2022-07-28T05:47:29.543Z,43.60
2022-07-28T05:52:34.070Z,43.50
2022-07-28T05:57:37.311Z,43.40
2022-07-28T06:02:40.492Z,43.40
2022-07-28T06:07:45.872Z,43.20
2022-07-28T06:12:50.534Z,43.10
2022-07-28T06:17:55.521Z,43.10
2022-07-28T06:23:00.343Z,43.00
2022-07-28T06:28:03.876Z,43.10
2022-07-28T06:33:07.765Z,43.20
2022-07-28T06:38:12.215Z,43.10
2022-07-28T06:43:15.462Z,43.00
2022-07-28T06:48:20.111Z,43.10
2022-07-28T06:53:24.544Z,43.00
2022-07-28T06:58:27.572Z,42.90
2022-07-28T07:03:30.604Z,42.90
2022-07-28T07:08:35.043Z,42.90
2022-07-28T07:13:38.052Z,42.80
2022-07-28T07:18:41.095Z,42.80
2022-07-28T07:23:45.528Z,42.80
2022-07-28T07:28:48.680Z,42.80
2022-07-28T07:33:51.756Z,42.80
2022-07-28T07:38:56.366Z,42.80
2022-07-28T07:43:59.425Z,42.80
2022-07-28T07:49:02.501Z,42.80
2022-07-28T07:54:07.102Z,42.80
2022-07-28T07:59:12.956Z,42.90
2022-07-28T08:04:16.390Z,42.80
2022-07-28T08:09:21.524Z,43.00
2022-07-28T08:14:24.720Z,43.00
2022-07-28T08:19:28.315Z,42.90
2022-07-28T08:24:34.269Z,43.60
2022-07-28T08:29:37.607Z,43.10
2022-07-28T08:34:40.639Z,43.20
2022-07-28T08:39:45.511Z,43.30
2022-07-28T08:44:53.709Z,43.30
2022-07-28T08:49:59.513Z,43.50
2022-07-28T08:55:07.313Z,43.50
2022-07-28T09:00:12.163Z,43.50
2022-07-28T09:05:15.395Z,43.60
2022-07-28T09:10:20.309Z,43.70
2022-07-28T09:15:23.795Z,43.80
2022-07-28T09:20:29.339Z,43.80
2022-07-28T09:25:34.184Z,43.90
2022-07-28T09:30:45.685Z,44.00
2022-07-28T09:35:58.857Z,44.10
2022-07-28T09:41:07.149Z,44.20
2022-07-28T09:46:12.818Z,44.40
2022-07-28T09:51:17.398Z,44.40
2022-07-28T09:56:23.457Z,44.40
2022-07-28T10:01:33.351Z,44.50
2022-07-28T10:06:40.716Z,44.60
2022-07-28T10:11:45.420Z,44.70
2022-07-28T10:16:52.745Z,44.80
2022-07-28T10:21:57.596Z,44.80
2022-07-28T10:27:05.011Z,44.90
2022-07-28T10:32:08.492Z,44.90
2022-07-28T10:37:18.719Z,45.00
2022-07-28T10:42:23.483Z,45.10
2022-07-28T10:47:35.898Z,45.10
2022-07-28T10:52:53.514Z,45.20
2022-07-28T10:58:11.936Z,45.20
2022-07-28T11:03:37.830Z,45.30
2022-07-28T11:08:40.963Z,45.50
2022-07-28T11:13:45.392Z,45.60
2022-07-28T11:19:07.829Z,45.80
2022-07-28T11:25:20.624Z,46.00
2022-07-28T11:30:55.225Z,46.20
2022-07-28T11:36:00.619Z,46.40
2022-07-28T11:41:30.025Z,46.40
2022-07-28T11:46:38.518Z,46.70
2022-07-28T11:51:52.650Z,46.70
2022-07-28T11:56:59.732Z,46.70
2022-07-28T12:02:04.168Z,46.80
2022-07-28T12:07:08.623Z,47.10
2022-07-28T12:12:12.523Z,47.00
2022-07-28T12:17:17.121Z,47.70
2022-07-28T12:22:21.156Z,47.10
2022-07-28T12:27:29.495Z,47.00
2022-07-28T12:32:36.839Z,47.00
2022-07-28T12:37:40.271Z,47.50
2022-07-28T12:42:43.339Z,47.00
2022-07-28T12:47:47.891Z,47.00
2022-07-28T12:53:07.221Z,47.00
2022-07-28T12:58:23.915Z,47.20
2022-07-28T13:03:31.201Z,47.40
2022-07-28T13:08:44.685Z,47.40
2022-07-28T13:13:49.943Z,47.50
2022-07-28T13:18:58.012Z,47.40
2022-07-28T13:24:01.198Z,47.30
2022-07-28T13:29:12.564Z,47.30
2022-07-28T13:34:18.250Z,47.10
2022-07-28T13:39:22.740Z,47.10
2022-07-28T13:44:25.994Z,46.90
2022-07-28T13:49:31.842Z,46.70
2022-07-28T13:54:35.878Z,46.50
2022-07-28T13:59:39.887Z,46.40
2022-07-28T14:04:46.164Z,46.30
2022-07-28T14:09:54.142Z,46.40
2022-07-28T14:14:57.752Z,47.10
2022-07-28T14:20:02.834Z,46.50
2022-07-28T14:25:07.020Z,46.40
2022-07-28T14:30:12.309Z,46.30
2022-07-28T14:35:38.363Z,46.50
2022-07-28T14:40:43.081Z,46.50
2022-07-28T14:46:00.568Z,46.40
2022-07-28T14:51:17.389Z,46.20
2022-07-28T14:56:21.436Z,46.20
2022-07-28T15:01:25.399Z,46.20
2022-07-28T15:06:30.337Z,46.20
2022-07-28T15:11:34.308Z,46.20
2022-07-28T15:16:38.597Z,46.00
2022-07-28T15:21:47.523Z,45.90
2022-07-28T15:26:51.261Z,45.70
2022-07-28T15:31:54.787Z,45.70
2022-07-28T15:37:04.790Z,45.40
2022-07-28T15:42:11.281Z,45.70
2022-07-28T15:47:18.667Z,45.10
2022-07-28T15:52:26.332Z,45.20
2022-07-28T15:57:37.810Z,45.20
2022-07-28T16:02:45.900Z,45.20
2022-07-28T16:07:50.576Z,44.90
2022-07-28T16:12:56.265Z,44.90
2022-07-28T16:17:59.645Z,45.00
2022-07-28T16:23:04.446Z,45.00
2022-07-28T16:28:10.118Z,45.10
2022-07-28T16:33:13.624Z,45.30
2022-07-28T16:38:19.418Z,46.10
2022-07-28T16:43:24.053Z,45.80
2022-07-28T16:48:28.000Z,45.80
2022-07-28T16:53:39.469Z,45.90
2022-07-28T16:58:42.803Z,45.90
2022-07-28T17:03:46.512Z,46.00
2022-07-28T17:09:06.498Z,46.20
2022-07-28T17:14:23.357Z,46.20
2022-07-28T17:19:33.184Z,46.30
2022-07-28T17:24:38.248Z,46.60
2022-07-28T17:29:42.717Z,46.90
2022-07-28T17:34:47.666Z,47.70
2022-07-28T17:39:52.325Z,48.40
2022-07-28T17:44:59.631Z,48.40
2022-07-28T17:50:03.021Z,50.00
2022-07-28T17:55:26.405Z,49.80
2022-07-28T18:00:32.571Z,49.90
2022-07-28T18:05:36.173Z,49.40
2022-07-28T18:10:43.171Z,49.20
2022-07-28T18:15:47.202Z,49.10
2022-07-28T18:20:50.523Z,50.40
2022-07-28T18:25:55.505Z,51.10
2022-07-28T18:30:59.266Z,51.40
2022-07-28T18:36:02.834Z,51.20
2022-07-28T18:41:08.790Z,51.00
2022-07-28T18:46:12.361Z,51.00
2022-07-28T18:51:16.125Z,51.50
2022-07-28T18:56:29.064Z,51.90
2022-07-28T19:01:36.498Z,52.40
2022-07-28T19:06:42.538Z,52.70
2022-07-28T19:11:49.581Z,52.30
2022-07-28T19:16:53.099Z,52.20
2022-07-28T19:21:56.658Z,51.90
2022-07-28T19:27:05.473Z,51.70
2022-07-28T19:32:10.041Z,52.00
2022-07-28T19:37:16.725Z,52.30
2022-07-28T19:42:37.890Z,52.60
2022-07-28T19:48:28.583Z,53.20
2022-07-28T19:53:41.526Z,54.40
2022-07-28T19:58:53.589Z,53.30
2022-07-28T20:04:03.385Z,53.10
2022-07-28T20:09:20.401Z,52.80
2022-07-28T20:14:25.148Z,52.30
2022-07-28T20:19:28.538Z,51.80
2022-07-28T20:24:47.595Z,51.60
2022-07-28T20:29:52.820Z,51.40
2022-07-28T20:35:01.379Z,51.10
2022-07-28T20:40:05.702Z,50.90
2022-07-28T20:45:11.528Z,50.80
2022-07-28T20:50:16.536Z,50.70
2022-07-28T20:55:23.990Z,50.60
2022-07-28T21:00:32.800Z,50.50
2022-07-28T21:05:42.651Z,50.40
2022-07-28T21:10:48.268Z,50.40
2022-07-28T21:15:53.423Z,50.40
2022-07-28T21:20:57.261Z,50.40
2022-07-28T21:26:01.160Z,50.30
2022-07-28T21:31:06.055Z,50.30
2022-07-28T21:36:09.534Z,50.20
2022-07-28T21:41:14.105Z,50.20
2022-07-28T21:46:19.970Z,50.20
2022-07-28T21:51:24.528Z,50.20
2022-07-28T21:56:28.593Z,50.20
2022-07-28T22:01:34.014Z,50.10
2022-07-28T22:06:37.667Z,50.00
2022-07-28T22:11:40.934Z,49.90
2022-07-28T22:16:46.021Z,49.70
2022-07-28T22:21:49.656Z,49.50
2022-07-28T22:26:57.695Z,49.40
2022-07-28T22:32:03.833Z,49.30
2022-07-28T22:37:12.903Z,49.20
2022-07-28T22:42:16.975Z,49.10
2022-07-28T22:47:21.690Z,49.10
2022-07-28T22:52:28.482Z,49.00
2022-07-28T22:57:31.921Z,49.10
2022-07-28T23:02:36.541Z,49.10
2022-07-28T23:07:52.928Z,49.10
2022-07-28T23:13:00.800Z,49.20
2022-07-28T23:18:05.816Z,49.20
2022-07-28T23:23:09.064Z,49.20
2022-07-28T23:28:12.739Z,49.20
2022-07-28T23:33:56.442Z,49.30
2022-07-28T23:38:41.950Z,49.40
2022-07-28T23:43:46.357Z,49.40
2022-07-28T23:48:51.182Z,49.40
2022-07-28T23:53:56.520Z,49.50
2022-07-28T23:58:59.853Z,49.50
